createdAt,value
2023-02-11T00:02:19.687Z,100192.66
2023-02-11T00:04:48.925Z,100183.44
2023-02-11T00:07:18.124Z,100153.91
2023-02-11T00:09:47.313Z,100168.78
2023-02-11T00:12:19.690Z,100166.22
2023-02-11T00:14:49.893Z,100172.09
2023-02-11T00:17:19.163Z,100177.53
2023-02-11T00:19:52.482Z,100165.84
2023-02-11T00:22:21.807Z,100171.69
2023-02-11T00:24:51.095Z,100173.28
2023-02-11T00:27:20.434Z,100175.00
2023-02-11T00:29:49.713Z,100171.75
2023-02-11T00:32:18.998Z,100187.13
2023-02-11T00:34:52.276Z,100184.75
2023-02-11T00:37:22.484Z,100177.25
2023-02-11T00:39:51.800Z,100178.25
2023-02-11T00:42:21.122Z,100173.41
2023-02-11T00:44:50.370Z,100181.03
2023-02-11T00:47:19.614Z,100183.63
2023-02-11T00:49:48.902Z,100173.53
2023-02-11T00:52:18.289Z,100172.91
2023-02-11T00:54:47.524Z,100178.97
2023-02-11T00:57:16.720Z,100184.88
2023-02-11T00:59:45.924Z,100180.75
2023-02-11T01:02:15.119Z,100174.00
2023-02-11T01:04:45.498Z,100173.91
2023-02-11T01:07:14.778Z,100172.25
2023-02-11T01:09:44.028Z,100170.78
2023-02-11T01:12:13.354Z,100169.06
2023-02-11T01:14:43.736Z,100160.59
2023-02-11T01:17:13.372Z,100160.50
2023-02-11T01:19:43.051Z,100168.06
2023-02-11T01:22:12.773Z,100163.81
2023-02-11T01:24:41.957Z,100172.16
2023-02-11T01:27:11.188Z,100156.38
2023-02-11T01:29:40.438Z,100146.31
2023-02-11T01:32:09.781Z,100153.84
2023-02-11T01:34:39.099Z,100151.31
2023-02-11T01:37:08.336Z,100158.84
2023-02-11T01:39:37.664Z,100163.81
2023-02-11T01:42:07.783Z,100151.19
2023-02-11T01:44:40.281Z,100147.97
2023-02-11T01:47:10.251Z,100151.28
2023-02-11T01:49:46.489Z,100154.53
2023-02-11T01:52:35.340Z,100136.91
2023-02-11T01:55:29.186Z,100143.66
2023-02-11T01:58:05.197Z,100133.50
2023-02-11T02:00:38.850Z,100136.75
2023-02-11T02:03:22.539Z,100131.66
2023-02-11T02:06:00.709Z,100125.91
2023-02-11T02:08:50.272Z,100121.00
2023-02-11T02:11:19.805Z,100124.41
2023-02-11T02:13:49.341Z,100122.00
2023-02-11T02:16:23.051Z,100115.34
2023-02-11T02:19:01.132Z,100108.38
2023-02-11T02:22:07.252Z,100100.59
2023-02-11T02:25:46.235Z,100095.59
2023-02-11T02:29:05.640Z,100089.03
2023-02-11T02:32:21.029Z,100097.63
2023-02-11T02:35:16.950Z,100086.81
2023-02-11T02:38:29.788Z,100089.44
2023-02-11T02:41:25.097Z,100087.19
2023-02-11T02:43:54.776Z,100096.84
2023-02-11T02:46:31.628Z,100085.34
2023-02-11T02:49:01.283Z,100084.44
2023-02-11T02:51:47.953Z,100085.28
2023-02-11T02:54:53.293Z,100076.00
2023-02-11T02:58:11.870Z,100070.91
2023-02-11T03:01:02.524Z,100066.88
2023-02-11T03:04:05.731Z,100064.69
2023-02-11T03:07:08.364Z,100064.69
2023-02-11T03:09:58.539Z,100057.09
2023-02-11T03:12:32.659Z,100064.75
2023-02-11T03:15:05.712Z,100059.53
2023-02-11T03:17:39.185Z,100064.47
2023-02-11T03:20:14.257Z,100062.81
2023-02-11T03:22:53.138Z,100065.34
2023-02-11T03:25:30.024Z,100073.00
2023-02-11T03:28:53.062Z,100071.41
2023-02-11T03:31:27.662Z,100073.16
2023-02-11T03:34:33.790Z,100058.66
2023-02-11T03:37:21.774Z,100055.25
2023-02-11T03:40:05.313Z,100057.56
2023-02-11T03:42:54.697Z,100053.19
2023-02-11T03:45:26.502Z,100043.88
2023-02-11T03:48:22.520Z,100045.44
2023-02-11T03:50:55.455Z,100047.22
2023-02-11T03:53:24.675Z,100038.00
2023-02-11T03:55:58.289Z,100042.25
2023-02-11T03:58:27.783Z,100034.81
2023-02-11T04:00:56.988Z,100036.50
2023-02-11T04:03:26.250Z,100034.00
2023-02-11T04:05:55.499Z,100034.09
2023-02-11T04:08:24.663Z,100033.16
2023-02-11T04:10:54.019Z,100027.31
2023-02-11T04:13:23.341Z,100023.97
2023-02-11T04:15:52.825Z,100020.50
2023-02-11T04:18:22.256Z,100022.97
2023-02-11T04:20:51.587Z,100022.94
2023-02-11T04:23:20.849Z,100005.19
2023-02-11T04:25:51.271Z,100005.16
2023-02-11T04:28:20.695Z,100010.28
2023-02-11T04:30:51.644Z,100022.75
2023-02-11T04:33:20.959Z,100014.25
2023-02-11T04:35:50.697Z,100014.28
2023-02-11T04:38:19.952Z,100006.09
2023-02-11T04:40:49.126Z,100004.44
2023-02-11T04:43:18.525Z,100005.84
2023-02-11T04:45:47.853Z,100006.47
2023-02-11T04:48:17.256Z,99995.38
2023-02-11T04:50:46.431Z,99984.25
2023-02-11T04:53:15.590Z,99995.84
2023-02-11T04:55:44.834Z,99985.53
2023-02-11T04:58:14.107Z,99988.75
2023-02-11T05:00:43.515Z,99986.81
2023-02-11T05:03:14.938Z,99982.28
2023-02-11T05:05:44.606Z,99979.47
2023-02-11T05:08:13.929Z,99982.72
2023-02-11T05:10:48.098Z,99979.53
2023-02-11T05:13:17.359Z,99969.47
2023-02-11T05:15:46.546Z,99974.47
2023-02-11T05:18:15.784Z,99961.94
2023-02-11T05:20:45.254Z,99969.41
2023-02-11T05:23:14.518Z,99957.28
2023-02-11T05:25:43.696Z,99949.66
2023-02-11T05:28:12.958Z,99939.06
2023-02-11T05:30:42.312Z,99946.78
2023-02-11T05:33:11.497Z,99950.59
2023-02-11T05:35:40.764Z,99955.38
2023-02-11T05:38:10.013Z,99941.59
2023-02-11T05:40:40.734Z,99943.00
2023-02-11T05:43:10.166Z,99940.16
2023-02-11T05:45:39.370Z,99939.34
2023-02-11T05:48:08.544Z,99940.09
2023-02-11T05:50:37.758Z,99937.41
2023-02-11T05:53:07.693Z,99949.22
2023-02-11T05:55:37.254Z,99945.63
2023-02-11T05:58:08.001Z,99938.66
2023-02-11T06:00:37.517Z,99940.22
2023-02-11T06:03:07.095Z,99937.03
2023-02-11T06:05:36.279Z,99942.91
2023-02-11T06:08:05.745Z,99938.66
2023-02-11T06:10:35.127Z,99931.81
2023-02-11T06:13:04.814Z,99934.34
2023-02-11T06:15:34.057Z,99925.06
2023-02-11T06:18:03.536Z,99931.72
2023-02-11T06:20:32.818Z,99924.91
2023-02-11T06:23:02.160Z,99915.59
2023-02-11T06:25:31.350Z,99909.25
2023-02-11T06:28:00.618Z,99921.13
2023-02-11T06:30:29.843Z,99913.56
2023-02-11T06:32:59.074Z,99903.34
2023-02-11T06:35:28.410Z,99902.16
2023-02-11T06:37:57.599Z,99899.06
2023-02-11T06:40:26.937Z,99895.22
2023-02-11T06:42:56.177Z,99886.34
2023-02-11T06:45:25.478Z,99889.13
2023-02-11T06:47:54.907Z,99878.50
2023-02-11T06:50:24.127Z,99878.94
2023-02-11T06:52:53.299Z,99886.25
2023-02-11T06:55:22.504Z,99889.38
2023-02-11T06:57:51.817Z,99883.16
2023-02-11T07:00:21.244Z,99906.94
2023-02-11T07:02:50.481Z,99916.53
2023-02-11T07:05:19.948Z,99915.66
2023-02-11T07:07:49.200Z,99917.47
2023-02-11T07:10:18.459Z,99911.88
2023-02-11T07:12:47.646Z,99902.09
2023-02-11T07:15:16.974Z,99901.69
2023-02-11T07:17:46.179Z,99917.81
2023-02-11T07:20:16.919Z,99921.41
2023-02-11T07:22:46.151Z,99915.94
2023-02-11T07:25:15.838Z,99896.78
2023-02-11T07:27:45.051Z,99899.31
2023-02-11T07:30:15.053Z,99901.16
2023-02-11T07:32:44.400Z,99892.97
2023-02-11T07:35:14.851Z,99897.63
2023-02-11T07:37:44.183Z,99884.09
2023-02-11T07:40:13.423Z,99898.19
2023-02-11T07:42:42.623Z,99887.00
2023-02-11T07:45:12.729Z,99875.59
2023-02-11T07:47:42.826Z,99871.16
2023-02-11T07:50:12.091Z,99863.16
2023-02-11T07:52:41.373Z,99867.91
2023-02-11T07:55:11.572Z,99855.78
2023-02-11T07:57:41.792Z,99847.66
2023-02-11T08:00:12.104Z,99854.09
2023-02-11T08:02:41.399Z,99849.56
2023-02-11T08:05:11.181Z,99848.59
2023-02-11T08:07:40.573Z,99839.38
2023-02-11T08:10:10.074Z,99843.94
2023-02-11T08:12:39.257Z,99845.25
2023-02-11T08:15:09.120Z,99849.47
2023-02-11T08:17:38.569Z,99848.50
2023-02-11T08:20:08.319Z,99847.59
2023-02-11T08:22:37.528Z,99837.69
2023-02-11T08:25:07.208Z,99833.63
2023-02-11T08:27:36.539Z,99826.84
2023-02-11T08:30:06.560Z,99821.50
2023-02-11T08:32:35.936Z,99823.09
2023-02-11T08:35:08.018Z,99824.81
2023-02-11T08:37:37.219Z,99818.03
2023-02-11T08:40:06.964Z,99816.22
2023-02-11T08:42:36.237Z,99798.91
2023-02-11T08:45:06.501Z,99795.16
2023-02-11T08:47:35.869Z,99798.94
2023-02-11T08:50:06.313Z,99808.75
2023-02-11T08:52:36.689Z,99801.03
2023-02-11T08:55:06.593Z,99792.56
2023-02-11T08:57:35.908Z,99797.72
2023-02-11T09:00:06.144Z,99789.56
2023-02-11T09:02:35.683Z,99781.63
2023-02-11T09:05:05.239Z,99781.34
2023-02-11T09:07:34.452Z,99781.47
2023-02-11T09:10:06.723Z,99773.47
2023-02-11T09:12:36.032Z,99770.59
2023-02-11T09:15:06.065Z,99773.25
2023-02-11T09:17:35.288Z,99766.88
2023-02-11T09:20:09.126Z,99770.16
2023-02-11T09:22:39.878Z,99759.47
2023-02-11T09:25:09.662Z,99760.16
2023-02-11T09:27:39.144Z,99762.50
2023-02-11T09:30:09.896Z,99771.34
2023-02-11T09:32:39.133Z,99786.28
2023-02-11T09:35:08.644Z,99772.84
2023-02-11T09:37:37.946Z,99771.38
2023-02-11T09:40:07.615Z,99763.13
2023-02-11T09:42:47.615Z,99769.59
2023-02-11T09:45:27.537Z,99759.84
2023-02-11T09:48:16.418Z,99758.41
2023-02-11T09:51:00.413Z,99754.94
2023-02-11T09:53:40.275Z,99747.00
2023-02-11T09:56:15.671Z,99748.31
2023-02-11T09:58:45.845Z,99752.72
2023-02-11T10:01:43.600Z,99750.91
2023-02-11T10:04:48.520Z,99728.03
2023-02-11T10:07:42.141Z,99728.78
2023-02-11T10:10:41.460Z,99720.06
2023-02-11T10:13:10.610Z,99720.59
2023-02-11T10:16:02.838Z,99722.41
2023-02-11T10:18:38.179Z,99709.16
2023-02-11T10:21:20.173Z,99704.03
2023-02-11T10:23:56.888Z,99695.47
2023-02-11T10:26:38.691Z,99688.59
2023-02-11T10:29:42.166Z,99678.78
2023-02-11T10:33:00.883Z,99661.25
2023-02-11T10:35:31.938Z,99665.31
2023-02-11T10:38:01.487Z,99663.72
2023-02-11T10:40:32.121Z,99653.25
2023-02-11T10:43:07.915Z,99641.72
2023-02-11T10:45:51.888Z,99637.28
2023-02-11T10:48:51.564Z,99630.06
2023-02-11T10:51:26.679Z,99614.94
2023-02-11T10:54:04.865Z,99596.78
2023-02-11T10:56:44.516Z,99609.66
2023-02-11T10:59:27.978Z,99593.81
2023-02-11T11:02:04.349Z,99597.41
2023-02-11T11:04:33.792Z,99589.84
2023-02-11T11:07:29.526Z,99582.63
2023-02-11T11:10:45.225Z,99574.72
2023-02-11T11:13:25.152Z,99565.59
2023-02-11T11:16:13.824Z,99564.34
2023-02-11T11:18:53.700Z,99559.41
2023-02-11T11:21:28.917Z,99540.97
2023-02-11T11:24:02.479Z,99546.66
2023-02-11T11:26:44.716Z,99537.78
2023-02-11T11:29:26.945Z,99540.00
2023-02-11T11:32:05.533Z,99538.91
2023-02-11T11:34:42.104Z,99528.28
2023-02-11T11:37:25.792Z,99541.75
2023-02-11T11:40:16.993Z,99534.84
2023-02-11T11:42:46.341Z,99523.25
2023-02-11T11:45:23.037Z,99529.91
2023-02-11T11:48:03.473Z,99524.38
2023-02-11T11:50:55.781Z,99507.56
2023-02-11T11:53:34.800Z,99485.81
2023-02-11T11:56:22.726Z,99495.75
2023-02-11T11:58:53.209Z,99487.63
2023-02-11T12:01:40.171Z,99484.84
2023-02-11T12:04:37.097Z,99478.81
2023-02-11T12:07:27.808Z,99476.81
2023-02-11T12:10:31.997Z,99466.03
2023-02-11T12:13:33.505Z,99462.78
2023-02-11T12:16:40.062Z,99461.84
2023-02-11T12:19:36.088Z,99456.28
2023-02-11T12:22:21.459Z,99439.44
2023-02-11T12:25:00.540Z,99440.47
2023-02-11T12:28:01.879Z,99438.81
2023-02-11T12:31:20.391Z,99437.34
2023-02-11T12:34:07.474Z,99426.34
2023-02-11T12:37:08.014Z,99408.59
2023-02-11T12:40:02.251Z,99406.13
2023-02-11T12:43:16.689Z,99406.63
2023-02-11T12:46:23.045Z,99414.84
2023-02-11T12:49:06.856Z,99413.66
2023-02-11T12:52:05.465Z,99415.22
2023-02-11T12:54:49.218Z,99395.63
2023-02-11T12:57:33.366Z,99389.28
2023-02-11T13:00:36.515Z,99386.22
2023-02-11T13:03:11.961Z,99397.94
2023-02-11T13:05:54.144Z,99396.78
2023-02-11T13:08:30.767Z,99395.47
2023-02-11T13:11:15.089Z,99395.78
2023-02-11T13:13:59.429Z,99397.84
2023-02-11T13:16:40.399Z,99396.72
2023-02-11T13:19:30.584Z,99403.41
2023-02-11T13:22:17.760Z,99416.81
2023-02-11T13:25:06.227Z,99417.13
2023-02-11T13:27:59.075Z,99421.34
2023-02-11T13:30:39.405Z,99421.03
2023-02-11T13:33:33.604Z,99426.56
2023-02-11T13:36:04.721Z,99444.16
2023-02-11T13:38:35.302Z,99440.44
2023-02-11T13:41:28.568Z,99434.84
2023-02-11T13:44:23.632Z,99446.53
2023-02-11T13:46:59.608Z,99451.72
2023-02-11T13:49:42.427Z,99443.16
2023-02-11T13:52:37.467Z,99425.47
2023-02-11T13:55:16.386Z,99426.72
2023-02-11T13:57:45.844Z,99444.31
2023-02-11T14:00:33.663Z,99442.25
2023-02-11T14:03:30.477Z,99434.72
2023-02-11T14:06:27.357Z,99438.53
2023-02-11T14:09:17.260Z,99425.03
2023-02-11T14:11:55.387Z,99427.63
2023-02-11T14:14:36.129Z,99424.94
2023-02-11T14:17:08.549Z,99435.06
2023-02-11T14:19:47.209Z,99446.28
2023-02-11T14:22:28.303Z,99434.13
2023-02-11T14:25:05.095Z,99439.47
2023-02-11T14:27:43.708Z,99440.44
2023-02-11T14:30:39.261Z,99440.22
2023-02-11T14:34:07.286Z,99437.31
2023-02-11T14:36:58.145Z,99436.66
2023-02-11T14:39:54.776Z,99424.56
2023-02-11T14:42:28.196Z,99406.88
2023-02-11T14:45:06.836Z,99398.13
2023-02-11T14:48:20.680Z,99394.38
2023-02-11T14:50:58.760Z,99389.69
2023-02-11T14:53:31.858Z,99378.03
2023-02-11T14:56:01.117Z,99363.28
2023-02-11T14:58:32.976Z,99361.78
2023-02-11T15:01:35.173Z,99365.34
2023-02-11T15:04:23.171Z,99360.22
2023-02-11T15:06:53.952Z,99362.94
2023-02-11T15:09:41.961Z,99365.59
2023-02-11T15:12:28.307Z,99367.28
2023-02-11T15:15:00.871Z,99352.16
2023-02-11T15:17:32.884Z,99338.34
2023-02-11T15:20:02.793Z,99348.78
2023-02-11T15:22:37.508Z,99328.19
2023-02-11T15:25:17.237Z,99334.53
2023-02-11T15:27:53.061Z,99330.88
2023-02-11T15:30:22.252Z,99339.84
2023-02-11T15:33:00.677Z,99359.94
2023-02-11T15:35:35.216Z,99334.34
2023-02-11T15:38:05.461Z,99341.34
2023-02-11T15:40:37.474Z,99348.97
2023-02-11T15:43:10.263Z,99350.19
2023-02-11T15:46:01.909Z,99360.41
2023-02-11T15:48:52.630Z,99373.63
2023-02-11T15:51:31.305Z,99364.53
2023-02-11T15:54:18.998Z,99373.38
2023-02-11T15:56:52.584Z,99375.13
2023-02-11T15:59:33.266Z,99379.22
2023-02-11T16:02:22.447Z,99381.41
2023-02-11T16:04:58.739Z,99393.38
2023-02-11T16:07:51.429Z,99395.97
2023-02-11T16:10:32.445Z,99373.22
2023-02-11T16:13:07.706Z,99388.50
2023-02-11T16:15:56.959Z,99383.84
2023-02-11T16:18:40.187Z,99374.84
2023-02-11T16:21:17.890Z,99392.97
2023-02-11T16:23:54.975Z,99399.34
2023-02-11T16:26:43.576Z,99383.56
2023-02-11T16:29:18.345Z,99400.75
2023-02-11T16:31:50.311Z,99399.91
2023-02-11T16:34:25.365Z,99408.91
2023-02-11T16:36:54.645Z,99416.53
2023-02-11T16:39:23.909Z,99410.53
2023-02-11T16:41:53.137Z,99403.34
2023-02-11T16:44:22.661Z,99407.28
2023-02-11T16:46:53.677Z,99403.19
2023-02-11T16:49:38.324Z,99401.41
2023-02-11T16:52:13.813Z,99400.75
2023-02-11T16:54:43.110Z,99400.19
2023-02-11T16:57:20.139Z,99404.81
2023-02-11T16:59:50.116Z,99392.56
2023-02-11T17:02:25.258Z,99387.69
2023-02-11T17:04:56.436Z,99388.34
2023-02-11T17:07:26.093Z,99394.63
2023-02-11T17:09:55.938Z,99397.06
2023-02-11T17:12:25.659Z,99394.75
2023-02-11T17:14:54.950Z,99388.34
2023-02-11T17:17:24.190Z,99398.84
2023-02-11T17:19:53.590Z,99392.84
2023-02-11T17:22:22.760Z,99390.91
2023-02-11T17:24:52.014Z,99391.22
2023-02-11T17:27:21.401Z,99388.50
2023-02-11T17:29:51.531Z,99389.84
2023-02-11T17:32:20.797Z,99395.56
2023-02-11T17:34:50.140Z,99401.44
2023-02-11T17:37:19.362Z,99395.56
2023-02-11T17:39:51.013Z,99396.66
2023-02-11T17:42:20.327Z,99395.97
2023-02-11T17:44:49.595Z,99398.16
2023-02-11T17:47:18.847Z,99401.56
2023-02-11T17:49:48.033Z,99404.97
2023-02-11T17:52:18.246Z,99398.00
2023-02-11T17:54:47.665Z,99393.63
2023-02-11T17:57:16.874Z,99392.94
2023-02-11T17:59:46.348Z,99384.66
2023-02-11T18:02:15.686Z,99384.09
2023-02-11T18:04:45.457Z,99375.38
2023-02-11T18:07:14.880Z,99382.72
2023-02-11T18:09:44.144Z,99375.06
2023-02-11T18:12:13.536Z,99373.28
2023-02-11T18:14:42.794Z,99376.41
2023-02-11T18:17:11.995Z,99371.22
2023-02-11T18:19:41.197Z,99384.50
2023-02-11T18:22:10.636Z,99384.25
2023-02-11T18:24:40.273Z,99382.88
2023-02-11T18:27:09.924Z,99383.69
2023-02-11T18:29:39.283Z,99381.22
2023-02-11T18:32:08.610Z,99378.81
2023-02-11T18:34:40.327Z,99373.88
2023-02-11T18:37:10.336Z,99365.31
2023-02-11T18:39:39.888Z,99364.91
2023-02-11T18:42:10.167Z,99364.91
2023-02-11T18:44:39.384Z,99366.66
2023-02-11T18:47:08.624Z,99363.50
2023-02-11T18:49:37.941Z,99374.78
2023-02-11T18:52:07.141Z,99354.13
2023-02-11T18:54:36.358Z,99351.00
2023-02-11T18:57:05.786Z,99361.31
2023-02-11T18:59:35.353Z,99349.47
2023-02-11T19:02:04.651Z,99348.25
2023-02-11T19:04:37.381Z,99359.66
2023-02-11T19:07:06.765Z,99359.38
2023-02-11T19:09:36.324Z,99359.13
2023-02-11T19:12:07.980Z,99362.41
2023-02-11T19:14:37.369Z,99351.00
2023-02-11T19:17:08.595Z,99351.41
2023-02-11T19:19:38.018Z,99349.94
2023-02-11T19:22:10.516Z,99354.19
2023-02-11T19:24:40.177Z,99347.00
2023-02-11T19:27:10.599Z,99348.59
2023-02-11T19:29:39.867Z,99363.59
2023-02-11T19:32:10.587Z,99347.00
2023-02-11T19:34:41.599Z,99337.19
2023-02-11T19:37:13.141Z,99356.09
2023-02-11T19:39:43.529Z,99350.56
2023-02-11T19:42:13.530Z,99364.59
2023-02-11T19:44:42.755Z,99363.06
2023-02-11T19:47:13.485Z,99348.78
2023-02-11T19:49:42.882Z,99354.41
2023-02-11T19:52:12.262Z,99344.06
2023-02-11T19:54:41.494Z,99337.94
2023-02-11T19:57:10.914Z,99338.06
2023-02-11T19:59:40.425Z,99340.53
2023-02-11T20:02:13.593Z,99342.41
2023-02-11T20:04:42.845Z,99336.31
2023-02-11T20:07:12.126Z,99341.34
2023-02-11T20:09:42.651Z,99330.19
2023-02-11T20:12:12.171Z,99326.22
2023-02-11T20:14:41.401Z,99324.72
2023-02-11T20:17:10.614Z,99324.72
2023-02-11T20:19:39.817Z,99314.09
2023-02-11T20:22:09.046Z,99310.81
2023-02-11T20:24:38.290Z,99322.25
2023-02-11T20:27:08.542Z,99326.88
2023-02-11T20:29:39.889Z,99320.63
2023-02-11T20:32:10.671Z,99318.41
2023-02-11T20:34:40.078Z,99323.34
2023-02-11T20:37:10.495Z,99318.84
2023-02-11T20:39:41.980Z,99320.19
2023-02-11T20:42:12.463Z,99317.09
2023-02-11T20:44:41.728Z,99313.69
2023-02-11T20:47:12.424Z,99301.16
2023-02-11T20:49:41.664Z,99307.69
2023-02-11T20:52:11.010Z,99303.19
2023-02-11T20:54:40.367Z,99310.25
2023-02-11T20:57:09.566Z,99301.00
2023-02-11T20:59:38.834Z,99307.25
2023-02-11T21:02:12.518Z,99305.88
2023-02-11T21:04:41.854Z,99305.19
2023-02-11T21:07:11.218Z,99302.88
2023-02-11T21:09:40.534Z,99300.56
2023-02-11T21:12:09.754Z,99300.31
2023-02-11T21:14:39.052Z,99302.88
2023-02-11T21:17:08.504Z,99297.03
2023-02-11T21:19:37.792Z,99290.22
2023-02-11T21:22:07.506Z,99289.28
2023-02-11T21:24:37.019Z,99292.00
2023-02-11T21:27:06.272Z,99301.09
2023-02-11T21:29:45.737Z,99307.22
2023-02-11T21:32:22.255Z,99302.28
2023-02-11T21:34:51.542Z,99303.34
2023-02-11T21:37:21.451Z,99308.16
2023-02-11T21:39:50.708Z,99312.63
2023-02-11T21:42:19.880Z,99311.69
2023-02-11T21:44:49.191Z,99311.69
2023-02-11T21:47:18.533Z,99313.84
2023-02-11T21:49:47.703Z,99298.09
2023-02-11T21:52:16.957Z,99310.19
2023-02-11T21:54:49.778Z,99305.16
2023-02-11T21:57:19.195Z,99322.28
2023-02-11T21:59:48.431Z,99326.78
2023-02-11T22:02:17.618Z,99321.47
2023-02-11T22:04:46.860Z,99328.97
2023-02-11T22:07:16.097Z,99331.97
2023-02-11T22:09:45.404Z,99322.31
2023-02-11T22:12:14.718Z,99321.38
2023-02-11T22:14:44.075Z,99323.97
2023-02-11T22:17:13.324Z,99329.38
2023-02-11T22:19:42.650Z,99339.47
2023-02-11T22:22:13.543Z,99338.41
2023-02-11T22:24:42.902Z,99332.81
2023-02-11T22:27:13.767Z,99343.16
2023-02-11T22:29:43.871Z,99353.50
2023-02-11T22:32:13.168Z,99346.69
2023-02-11T22:34:42.607Z,99359.47
2023-02-11T22:37:11.998Z,99361.81
2023-02-11T22:39:42.727Z,99366.31
2023-02-11T22:42:12.070Z,99366.19
2023-02-11T22:44:41.386Z,99359.53
2023-02-11T22:47:10.630Z,99373.69
2023-02-11T22:49:41.479Z,99380.66
2023-02-11T22:52:10.721Z,99381.09
2023-02-11T22:54:39.941Z,99378.09
2023-02-11T22:57:09.361Z,99385.47
2023-02-11T22:59:38.567Z,99389.97
2023-02-11T23:02:08.346Z,99386.56
2023-02-11T23:04:37.677Z,99386.84
2023-02-11T23:07:06.918Z,99379.09
2023-02-11T23:09:36.119Z,99365.88
2023-02-11T23:12:05.794Z,99377.56
2023-02-11T23:14:34.968Z,99359.88
2023-02-11T23:17:04.225Z,99360.81
2023-02-11T23:19:33.564Z,99359.06
2023-02-11T23:22:03.589Z,99360.69
2023-02-11T23:24:32.973Z,99370.09
2023-02-11T23:27:02.436Z,99361.38
2023-02-11T23:29:31.734Z,99355.78
2023-02-11T23:32:01.053Z,99361.94
2023-02-11T23:34:30.341Z,99363.84
2023-02-11T23:36:59.716Z,99369.28
2023-02-11T23:39:30.271Z,99358.78
2023-02-11T23:41:59.624Z,99366.16
2023-02-11T23:44:29.130Z,99365.34
2023-02-11T23:46:58.372Z,99369.94
2023-02-11T23:49:27.633Z,99371.03
2023-02-11T23:51:56.889Z,99375.13
2023-02-11T23:54:26.053Z,99380.81
2023-02-11T23:56:55.287Z,99375.38
2023-02-11T23:59:24.530Z,99386.13
